createdAt,value
2023-05-28T00:00:12.109Z,24.00
2023-05-28T00:02:45.456Z,23.60
2023-05-28T00:05:13.777Z,24.30
2023-05-28T00:07:43.190Z,23.10
2023-05-28T00:10:11.579Z,25.70
2023-05-28T00:12:39.335Z,27.00
2023-05-28T00:15:09.070Z,28.90
2023-05-28T00:17:36.807Z,28.10
2023-05-28T00:20:05.730Z,29.50
2023-05-28T00:22:34.100Z,29.30
2023-05-28T00:25:01.764Z,31.20
2023-05-28T00:27:29.570Z,33.40
2023-05-28T00:29:57.274Z,31.10
2023-05-28T00:32:24.993Z,33.40
2023-05-28T00:34:53.165Z,34.80
2023-05-28T00:37:21.384Z,33.00
2023-05-28T00:39:49.135Z,35.00
2023-05-28T00:42:16.786Z,32.60
2023-05-28T00:44:45.375Z,35.00
2023-05-28T00:47:13.139Z,34.40
2023-05-28T00:49:41.011Z,34.10
2023-05-28T00:52:09.001Z,33.40
2023-05-28T00:54:36.849Z,33.00
2023-05-28T00:57:05.742Z,33.40
2023-05-28T00:59:35.479Z,31.00
2023-05-28T01:02:03.220Z,31.60
2023-05-28T01:04:33.834Z,31.30
2023-05-28T01:07:01.647Z,30.60
2023-05-28T01:09:29.489Z,29.50
2023-05-28T01:11:57.198Z,28.60
2023-05-28T01:14:25.002Z,28.20
2023-05-28T01:16:53.256Z,27.70
2023-05-28T01:19:23.256Z,25.70
2023-05-28T01:21:52.574Z,26.60
2023-05-28T01:24:20.307Z,27.50
2023-05-28T01:26:50.167Z,24.90
2023-05-28T01:29:18.883Z,24.40
2023-05-28T01:31:47.161Z,24.40
2023-05-28T01:34:14.977Z,25.10
2023-05-28T01:37:03.349Z,23.30
2023-05-28T01:39:37.871Z,22.10
2023-05-28T01:42:07.173Z,23.00
2023-05-28T01:44:34.911Z,22.00
2023-05-28T01:47:02.604Z,24.30
2023-05-28T01:49:30.496Z,23.70
2023-05-28T01:51:58.652Z,23.80
2023-05-28T01:54:26.608Z,24.10
2023-05-28T01:56:56.203Z,21.80
2023-05-28T01:59:24.012Z,22.10
2023-05-28T02:01:52.475Z,20.80
2023-05-28T02:04:20.361Z,20.10
2023-05-28T02:06:48.407Z,21.00
2023-05-28T02:09:16.158Z,21.00
2023-05-28T02:11:44.008Z,21.10
2023-05-28T02:14:15.602Z,21.10
2023-05-28T02:16:49.446Z,20.40
2023-05-28T02:19:18.898Z,19.60
2023-05-28T02:21:47.558Z,18.40
2023-05-28T02:24:15.195Z,18.80
2023-05-28T02:26:43.397Z,18.60
2023-05-28T02:29:11.111Z,17.60
2023-05-28T02:31:38.884Z,18.00
2023-05-28T02:34:06.643Z,18.20
2023-05-28T02:36:34.599Z,18.40
2023-05-28T02:39:03.757Z,18.70
2023-05-28T02:41:31.803Z,18.60
2023-05-28T02:43:59.684Z,16.40
2023-05-28T02:46:27.467Z,19.00
2023-05-28T02:48:55.771Z,16.50
2023-05-28T02:51:24.671Z,17.90
2023-05-28T02:54:00.666Z,17.60
2023-05-28T02:56:28.813Z,19.10
2023-05-28T02:58:56.540Z,17.90
2023-05-28T03:01:24.473Z,19.20
2023-05-28T03:03:52.386Z,18.00
2023-05-28T03:06:22.512Z,17.90
2023-05-28T03:08:53.950Z,17.80
2023-05-28T03:11:23.034Z,17.30
2023-05-28T03:13:51.676Z,16.10
2023-05-28T03:16:19.851Z,17.10
2023-05-28T03:18:47.870Z,16.40
2023-05-28T03:21:16.610Z,15.70
2023-05-28T03:23:44.577Z,15.00
2023-05-28T03:26:15.969Z,14.40
2023-05-28T03:28:43.986Z,13.10
2023-05-28T03:31:27.057Z,12.40
2023-05-28T03:33:54.934Z,12.20
2023-05-28T03:36:23.834Z,11.30
2023-05-28T03:38:51.989Z,9.60
2023-05-28T03:41:19.813Z,9.20
2023-05-28T03:43:48.160Z,8.80
2023-05-28T03:46:16.500Z,8.50
2023-05-28T03:48:45.103Z,8.60
2023-05-28T03:51:13.477Z,8.30
2023-05-28T03:53:41.693Z,8.70
2023-05-28T03:56:09.552Z,7.50
2023-05-28T03:58:37.540Z,7.90
2023-05-28T04:01:06.646Z,8.10
2023-05-28T04:03:34.808Z,8.00
2023-05-28T04:06:04.009Z,7.70
2023-05-28T04:08:31.828Z,7.10
2023-05-28T04:10:59.636Z,7.20
2023-05-28T04:13:27.802Z,6.80
2023-05-28T04:15:56.324Z,7.20
2023-05-28T04:18:24.223Z,7.40
2023-05-28T04:20:52.085Z,6.90
2023-05-28T04:23:20.568Z,6.30
2023-05-28T04:25:48.556Z,6.40
2023-05-28T04:28:16.319Z,6.20
2023-05-28T04:30:44.667Z,6.60
2023-05-28T04:33:12.490Z,6.40
2023-05-28T04:35:40.272Z,6.00
2023-05-28T04:38:08.373Z,6.40
2023-05-28T04:40:36.448Z,6.50
2023-05-28T04:43:04.405Z,6.30
2023-05-28T04:45:33.901Z,6.20
2023-05-28T04:48:02.818Z,6.60
2023-05-28T04:50:30.885Z,6.70
2023-05-28T04:52:59.775Z,6.40
2023-05-28T04:55:28.851Z,7.00
2023-05-28T04:57:57.091Z,6.60
2023-05-28T05:00:27.049Z,6.50
2023-05-28T05:02:56.358Z,6.30
2023-05-28T05:05:25.217Z,5.20
2023-05-28T05:07:53.335Z,5.80
2023-05-28T05:10:21.291Z,6.60
2023-05-28T05:12:50.908Z,5.60
2023-05-28T05:15:19.382Z,6.00
2023-05-28T05:17:49.120Z,6.10
2023-05-28T05:20:18.446Z,5.90
2023-05-28T05:22:46.384Z,7.10
2023-05-28T05:25:15.128Z,5.40
2023-05-28T05:27:45.278Z,5.60
2023-05-28T05:30:13.394Z,5.10
2023-05-28T05:32:41.230Z,5.70
2023-05-28T05:35:09.534Z,5.40
2023-05-28T05:37:56.180Z,7.20
2023-05-28T05:40:29.367Z,6.20
2023-05-28T05:43:02.033Z,6.50
2023-05-28T05:45:30.682Z,6.30
2023-05-28T05:47:58.558Z,5.70
2023-05-28T05:50:26.449Z,6.20
2023-05-28T05:52:54.422Z,5.20
2023-05-28T05:55:22.359Z,5.00
2023-05-28T05:57:51.151Z,4.60
2023-05-28T06:00:19.218Z,3.80
2023-05-28T06:02:50.068Z,3.90
2023-05-28T06:05:47.688Z,3.70
2023-05-28T06:08:45.191Z,3.70
2023-05-28T06:11:34.985Z,4.20
2023-05-28T06:14:02.761Z,3.10
2023-05-28T06:16:30.696Z,2.90
2023-05-28T06:18:58.559Z,2.90
2023-05-28T06:21:26.686Z,3.10
2023-05-28T06:23:54.483Z,2.90
2023-05-28T06:26:22.917Z,3.10
2023-05-28T06:28:51.402Z,3.20
2023-05-28T06:31:20.490Z,2.70
2023-05-28T06:33:49.344Z,3.00
2023-05-28T06:36:17.364Z,2.40
2023-05-28T06:38:45.000Z,3.00
2023-05-28T06:41:12.886Z,3.40
2023-05-28T06:43:49.836Z,2.60
2023-05-28T06:46:24.094Z,2.90
2023-05-28T06:48:52.207Z,2.50
2023-05-28T06:51:20.484Z,2.70
2023-05-28T06:53:48.698Z,2.70
2023-05-28T06:56:19.322Z,2.60
2023-05-28T06:59:06.196Z,2.90
2023-05-28T07:02:06.294Z,2.60
2023-05-28T07:05:12.452Z,2.50
2023-05-28T07:07:42.238Z,3.10
2023-05-28T07:10:12.466Z,2.60
2023-05-28T07:12:42.237Z,2.50
2023-05-28T07:15:11.541Z,2.50
2023-05-28T07:17:40.126Z,3.10
2023-05-28T07:20:08.841Z,3.00
2023-05-28T07:22:47.860Z,2.70
2023-05-28T07:25:16.026Z,3.50
2023-05-28T07:27:44.264Z,3.40
2023-05-28T07:30:13.427Z,2.90
2023-05-28T07:32:41.684Z,3.30
2023-05-28T07:35:10.056Z,3.30
2023-05-28T07:37:39.757Z,3.20
2023-05-28T07:40:09.159Z,3.10
2023-05-28T07:42:37.250Z,4.50
2023-05-28T07:45:08.793Z,4.30
2023-05-28T07:47:37.132Z,3.50
2023-05-28T07:50:15.891Z,3.30
2023-05-28T07:53:05.470Z,3.70
2023-05-28T07:55:34.273Z,4.10
2023-05-28T07:58:02.177Z,3.50
2023-05-28T08:00:31.066Z,4.20
2023-05-28T08:03:03.366Z,4.40
2023-05-28T08:05:39.821Z,4.50
2023-05-28T08:08:08.080Z,4.10
2023-05-28T08:10:37.069Z,5.20
2023-05-28T08:13:05.030Z,5.20
2023-05-28T08:15:34.248Z,5.00
2023-05-28T08:18:02.368Z,5.20
2023-05-28T08:20:31.731Z,5.80
2023-05-28T08:23:11.591Z,5.50
2023-05-28T08:25:39.516Z,5.50
2023-05-28T08:28:13.668Z,5.50
2023-05-28T08:30:41.783Z,5.40
2023-05-28T08:33:19.104Z,6.00
2023-05-28T08:35:46.965Z,4.90
2023-05-28T08:38:15.117Z,5.70
2023-05-28T08:40:50.821Z,6.10
2023-05-28T08:43:18.728Z,4.80
2023-05-28T08:45:46.916Z,4.70
2023-05-28T08:48:15.264Z,5.30
2023-05-28T08:50:45.498Z,4.90
2023-05-28T08:53:31.846Z,4.70
2023-05-28T08:55:59.872Z,5.20
2023-05-28T08:58:28.460Z,4.60
2023-05-28T09:00:57.438Z,5.80
2023-05-28T09:03:47.190Z,4.50
2023-05-28T09:06:18.910Z,4.80
2023-05-28T09:08:46.781Z,4.80
2023-05-28T09:11:22.398Z,5.40
2023-05-28T09:13:50.270Z,5.20
2023-05-28T09:16:22.965Z,5.00
2023-05-28T09:18:52.650Z,4.10
2023-05-28T09:21:21.055Z,4.10
2023-05-28T09:23:52.284Z,3.90
2023-05-28T09:26:40.133Z,3.90
2023-05-28T09:29:21.713Z,3.80
2023-05-28T09:31:59.150Z,4.30
2023-05-28T09:34:30.881Z,3.20
2023-05-28T09:37:02.811Z,4.00
2023-05-28T09:39:31.324Z,3.30
2023-05-28T09:42:14.611Z,3.70
2023-05-28T09:44:43.472Z,3.70
2023-05-28T09:47:16.102Z,3.70
2023-05-28T09:49:47.775Z,3.50
2023-05-28T09:52:22.072Z,4.00
2023-05-28T09:54:55.315Z,3.90
2023-05-28T09:57:26.792Z,3.50
2023-05-28T09:59:56.894Z,3.60
2023-05-28T10:02:41.612Z,4.00
2023-05-28T10:05:09.680Z,3.10
2023-05-28T10:07:37.685Z,4.90
2023-05-28T10:10:07.608Z,3.90
2023-05-28T10:12:35.675Z,4.20
2023-05-28T10:15:03.881Z,3.50
2023-05-28T10:17:31.752Z,3.40
2023-05-28T10:19:59.724Z,3.80
2023-05-28T10:22:27.619Z,4.50
2023-05-28T10:24:56.038Z,5.00
2023-05-28T10:27:31.585Z,5.20
2023-05-28T10:30:00.418Z,4.30
2023-05-28T10:32:28.341Z,4.20
2023-05-28T10:35:05.518Z,4.80
2023-05-28T10:37:33.700Z,4.80
2023-05-28T10:40:01.563Z,5.60
2023-05-28T10:42:29.249Z,5.20
2023-05-28T10:45:14.340Z,5.90
2023-05-28T10:47:53.355Z,6.90
2023-05-28T10:50:21.749Z,7.80
2023-05-28T10:53:08.991Z,6.70
2023-05-28T10:55:56.246Z,7.90
2023-05-28T10:58:29.200Z,7.50
2023-05-28T11:01:23.577Z,7.80
2023-05-28T11:03:55.980Z,6.60
2023-05-28T11:10:54.210Z,6.60
2023-05-28T11:13:21.979Z,6.10
2023-05-28T11:15:49.853Z,6.20
2023-05-28T11:18:17.731Z,7.30
2023-05-28T11:20:45.713Z,6.60
2023-05-28T11:23:19.155Z,7.50
2023-05-28T11:25:47.372Z,6.60
2023-05-28T11:28:15.152Z,6.60
2023-05-28T11:30:42.960Z,9.10
2023-05-28T11:33:17.457Z,9.20
2023-05-28T11:35:48.776Z,9.10
2023-05-28T11:38:19.551Z,9.80
2023-05-28T11:40:47.379Z,8.90
2023-05-28T11:43:15.193Z,8.50
2023-05-28T11:45:43.070Z,8.50
2023-05-28T11:48:13.832Z,9.10
2023-05-28T11:50:41.724Z,8.80
2023-05-28T11:53:09.585Z,10.10
2023-05-28T11:55:37.481Z,9.00
2023-05-28T11:58:05.265Z,8.40
2023-05-28T12:00:37.770Z,8.50
2023-05-28T12:03:05.857Z,7.20
2023-05-28T12:05:40.157Z,7.10
2023-05-28T12:08:08.161Z,6.10
2023-05-28T12:10:36.100Z,5.90
2023-05-28T12:13:03.994Z,6.00
2023-05-28T12:15:31.845Z,6.30
2023-05-28T12:18:05.311Z,6.00
2023-05-28T12:20:51.681Z,6.60
2023-05-28T12:23:21.957Z,7.00
2023-05-28T12:25:50.577Z,7.00
2023-05-28T12:28:22.392Z,7.60
2023-05-28T12:30:52.366Z,7.50
2023-05-28T12:33:21.369Z,8.20
2023-05-28T12:35:49.450Z,7.50
2023-05-28T12:38:17.772Z,7.20
2023-05-28T12:40:45.648Z,8.00
2023-05-28T12:43:13.467Z,7.60
2023-05-28T12:45:41.483Z,7.80
2023-05-28T12:48:10.327Z,7.80
2023-05-28T12:50:38.437Z,7.30
2023-05-28T12:53:06.599Z,7.60
2023-05-28T12:55:34.553Z,7.70
2023-05-28T12:58:03.076Z,7.10
2023-05-28T13:00:31.329Z,7.30
2023-05-28T13:02:59.900Z,7.00
2023-05-28T13:05:28.992Z,7.30
2023-05-28T13:07:56.913Z,12.10
2023-05-28T13:10:24.879Z,11.50
2023-05-28T13:12:52.843Z,10.50
2023-05-28T13:15:20.902Z,11.10
2023-05-28T13:17:48.836Z,10.60
2023-05-28T13:20:17.133Z,8.90
2023-05-28T13:22:45.071Z,10.30
2023-05-28T13:25:13.371Z,10.90
2023-05-28T13:27:42.010Z,8.80
2023-05-28T13:30:10.496Z,8.40
2023-05-28T13:32:38.395Z,8.60
2023-05-28T13:35:06.711Z,8.30
2023-05-28T13:37:34.965Z,8.40
2023-05-28T13:40:09.326Z,7.70
2023-05-28T13:42:38.220Z,7.70
2023-05-28T13:45:06.908Z,7.80
2023-05-28T13:47:34.695Z,7.10
2023-05-28T13:50:02.738Z,7.50
2023-05-28T13:52:30.548Z,8.10
2023-05-28T13:54:58.401Z,7.10
2023-05-28T13:57:26.268Z,8.40
2023-05-28T13:59:53.905Z,8.50
2023-05-28T14:02:21.615Z,9.70
2023-05-28T14:05:46.403Z,10.00
2023-05-28T14:09:30.069Z,9.40
2023-05-28T14:12:22.344Z,9.40
2023-05-28T14:14:50.981Z,8.30
2023-05-28T14:17:18.886Z,9.20
2023-05-28T14:19:48.421Z,8.90
2023-05-28T14:22:16.769Z,8.60
2023-05-28T14:24:44.734Z,7.80
2023-05-28T14:27:12.686Z,7.60
2023-05-28T14:29:40.664Z,10.20
2023-05-28T14:32:08.626Z,11.90
2023-05-28T14:34:36.518Z,14.80
2023-05-28T14:37:05.133Z,17.00
2023-05-28T14:39:33.164Z,16.20
2023-05-28T14:42:01.495Z,15.70
2023-05-28T14:44:29.770Z,17.10
2023-05-28T14:46:58.225Z,19.20
2023-05-28T14:49:26.490Z,14.20
2023-05-28T14:51:56.687Z,8.40
2023-05-28T14:54:24.777Z,7.30
2023-05-28T14:56:53.270Z,7.30
2023-05-28T14:59:21.269Z,15.30
2023-05-28T15:01:49.256Z,16.90
2023-05-28T15:04:17.235Z,11.80
2023-05-28T15:06:45.192Z,10.20
2023-05-28T15:09:13.174Z,9.30
2023-05-28T15:11:41.167Z,8.30
2023-05-28T15:14:11.980Z,7.40
2023-05-28T15:16:39.991Z,8.00
2023-05-28T15:19:08.109Z,6.70
2023-05-28T15:21:36.379Z,6.40
2023-05-28T15:24:04.439Z,6.90
2023-05-28T15:26:32.369Z,7.80
2023-05-28T15:29:00.707Z,7.90
2023-05-28T15:31:28.725Z,7.90
2023-05-28T15:33:57.198Z,7.30
2023-05-28T15:36:25.676Z,8.30
2023-05-28T15:38:53.965Z,8.40
2023-05-28T15:41:21.905Z,8.90
2023-05-28T15:43:49.873Z,8.40
2023-05-28T15:46:18.101Z,8.90
2023-05-28T15:48:46.015Z,8.80
2023-05-28T15:51:14.313Z,8.50
2023-05-28T15:53:42.299Z,8.60
2023-05-28T15:56:10.505Z,8.20
2023-05-28T15:58:38.725Z,8.20
2023-05-28T16:01:07.453Z,8.30
2023-05-28T16:03:35.857Z,7.10
2023-05-28T16:06:05.107Z,8.50
2023-05-28T16:08:33.329Z,8.60
2023-05-28T16:11:01.672Z,7.80
2023-05-28T16:13:30.207Z,7.00
2023-05-28T16:15:59.367Z,7.30
2023-05-28T16:18:29.689Z,6.90
2023-05-28T16:21:00.191Z,7.20
2023-05-28T16:23:30.924Z,6.10
2023-05-28T16:25:59.975Z,6.70
2023-05-28T16:28:27.992Z,6.80
2023-05-28T16:30:59.276Z,6.10
2023-05-28T16:33:27.364Z,6.40
2023-05-28T16:35:57.196Z,6.60
2023-05-28T16:38:25.724Z,7.40
2023-05-28T16:40:53.799Z,7.30
2023-05-28T16:43:21.968Z,6.60
2023-05-28T16:45:50.021Z,6.80
2023-05-28T16:48:18.299Z,7.40
2023-05-28T16:50:48.529Z,6.20
2023-05-28T16:53:20.132Z,7.30
2023-05-28T16:55:48.186Z,7.00
2023-05-28T16:58:16.565Z,8.10
2023-05-28T17:00:44.523Z,8.40
2023-05-28T17:03:13.073Z,8.30
2023-05-28T17:05:41.356Z,9.10
2023-05-28T17:08:09.424Z,7.60
2023-05-28T17:10:37.404Z,8.40
2023-05-28T17:13:05.833Z,8.80
2023-05-28T17:15:33.794Z,9.20
2023-05-28T17:18:01.818Z,8.10
2023-05-28T17:20:29.672Z,8.50
2023-05-28T17:22:57.858Z,7.80
2023-05-28T17:25:26.803Z,8.60
2023-05-28T17:27:54.843Z,8.70
2023-05-28T17:30:22.986Z,8.00
2023-05-28T17:32:51.211Z,9.00
2023-05-28T17:35:19.330Z,9.30
2023-05-28T17:37:47.601Z,9.80
2023-05-28T17:40:15.892Z,9.80
2023-05-28T17:42:43.925Z,9.80
2023-05-28T17:45:11.953Z,9.90
2023-05-28T17:47:40.497Z,11.40
2023-05-28T17:50:08.884Z,10.10
2023-05-28T17:52:40.078Z,11.10
2023-05-28T17:55:08.569Z,10.20
2023-05-28T17:57:36.496Z,10.50
2023-05-28T18:00:10.057Z,11.40
2023-05-28T18:02:38.089Z,13.60
2023-05-28T18:05:06.563Z,13.30
2023-05-28T18:07:35.181Z,16.20
2023-05-28T18:10:03.134Z,15.70
2023-05-28T18:12:31.078Z,16.30
2023-05-28T18:14:58.919Z,17.00
2023-05-28T18:17:26.812Z,14.40
2023-05-28T18:19:54.630Z,14.90
2023-05-28T18:22:23.172Z,15.20
2023-05-28T18:24:51.527Z,15.80
2023-05-28T18:27:19.388Z,17.20
2023-05-28T18:29:47.295Z,15.60
2023-05-28T18:32:15.378Z,16.30
2023-05-28T18:34:43.401Z,16.60
2023-05-28T18:37:12.535Z,18.10
2023-05-28T18:39:40.981Z,16.30
2023-05-28T18:42:10.180Z,15.70
2023-05-28T18:44:42.425Z,16.50
2023-05-28T18:47:10.241Z,15.70
2023-05-28T18:49:38.300Z,16.70
2023-05-28T18:52:07.077Z,15.70
2023-05-28T18:54:35.534Z,15.20
2023-05-28T18:57:03.878Z,16.20
2023-05-28T18:59:31.796Z,16.40
2023-05-28T19:01:59.752Z,14.60
2023-05-28T19:04:28.663Z,14.50
2023-05-28T19:06:56.820Z,13.90
2023-05-28T19:09:25.155Z,15.10
2023-05-28T19:11:53.552Z,16.40
2023-05-28T19:14:21.823Z,15.70
2023-05-28T19:16:50.051Z,14.40
2023-05-28T19:19:18.227Z,15.50
2023-05-28T19:21:46.147Z,15.90
2023-05-28T19:24:14.072Z,15.90
2023-05-28T19:26:42.021Z,17.20
2023-05-28T19:29:09.844Z,18.40
2023-05-28T19:31:41.101Z,19.20
2023-05-28T19:34:09.108Z,18.00
2023-05-28T19:36:37.748Z,18.50
2023-05-28T19:39:06.758Z,19.20
2023-05-28T19:41:36.629Z,20.00
2023-05-28T19:44:06.490Z,20.50
2023-05-28T19:46:34.794Z,20.60
2023-05-28T19:49:02.917Z,22.80
2023-05-28T19:51:30.807Z,21.10
2023-05-28T19:53:58.818Z,22.00
2023-05-28T19:56:26.907Z,23.40
2023-05-28T19:58:55.280Z,21.30
2023-05-28T20:01:25.246Z,20.30
2023-05-28T20:03:53.637Z,21.10
2023-05-28T20:06:22.207Z,22.10
2023-05-28T20:08:50.196Z,21.50
2023-05-28T20:11:18.541Z,22.60
2023-05-28T20:13:46.924Z,22.10
2023-05-28T20:16:18.325Z,23.30
2023-05-28T20:18:46.762Z,23.50
2023-05-28T20:21:14.726Z,21.90
2023-05-28T20:23:42.667Z,23.40
2023-05-28T20:26:10.985Z,22.40
2023-05-28T20:28:38.804Z,23.00
2023-05-28T20:31:06.665Z,23.50
2023-05-28T20:33:34.538Z,23.80
2023-05-28T20:36:02.461Z,23.70
2023-05-28T20:38:30.361Z,26.10
2023-05-28T20:40:58.155Z,24.40
2023-05-28T20:43:26.548Z,24.60
2023-05-28T20:45:54.732Z,23.90
2023-05-28T20:48:22.682Z,26.50
2023-05-28T20:50:50.500Z,26.10
2023-05-28T20:53:18.448Z,24.80
2023-05-28T20:55:46.348Z,26.50
2023-05-28T20:58:22.220Z,26.80
2023-05-28T21:00:54.497Z,26.90
2023-05-28T21:03:22.530Z,26.70
2023-05-28T21:05:50.624Z,25.80
2023-05-28T21:08:18.518Z,26.20
2023-05-28T21:10:47.035Z,26.10
2023-05-28T21:13:14.895Z,25.90
2023-05-28T21:15:42.731Z,27.30
2023-05-28T21:18:10.695Z,27.80
2023-05-28T21:20:39.722Z,30.20
2023-05-28T21:23:07.845Z,28.80
2023-05-28T21:25:35.636Z,28.30
2023-05-28T21:28:03.479Z,25.30
2023-05-28T21:30:31.635Z,26.50
2023-05-28T21:32:59.695Z,26.10
2023-05-28T21:35:27.528Z,26.40
2023-05-28T21:37:55.331Z,30.60
2023-05-28T21:40:23.211Z,29.20
2023-05-28T21:42:52.061Z,28.20
2023-05-28T21:45:21.462Z,28.00
2023-05-28T21:47:49.382Z,31.10
2023-05-28T21:50:19.206Z,26.30
2023-05-28T21:52:47.408Z,25.00
2023-05-28T21:55:15.247Z,24.10
2023-05-28T21:57:43.522Z,26.20
2023-05-28T22:00:17.029Z,24.10
2023-05-28T22:02:44.942Z,24.50
2023-05-28T22:05:13.558Z,25.40
2023-05-28T22:07:42.021Z,25.80
2023-05-28T22:10:12.906Z,26.40
2023-05-28T22:12:42.160Z,26.10
2023-05-28T22:15:10.882Z,26.60
2023-05-28T22:17:42.483Z,26.50
2023-05-28T22:20:11.376Z,23.30
2023-05-28T22:22:39.898Z,24.50
2023-05-28T22:25:08.338Z,24.70
2023-05-28T22:27:36.888Z,24.00
2023-05-28T22:30:06.492Z,24.90
2023-05-28T22:32:34.929Z,24.00
2023-05-28T22:35:03.012Z,22.70
2023-05-28T22:37:31.470Z,22.50
2023-05-28T22:39:59.688Z,21.80
2023-05-28T22:42:27.276Z,22.20
2023-05-28T22:44:54.898Z,20.40
2023-05-28T22:47:27.714Z,21.70
2023-05-28T22:49:57.322Z,19.50
2023-05-28T22:52:25.997Z,18.60
2023-05-28T22:54:53.773Z,21.20
2023-05-28T22:57:21.474Z,20.70
2023-05-28T22:59:49.196Z,18.30
2023-05-28T23:02:16.967Z,17.30
2023-05-28T23:04:44.826Z,15.90
2023-05-28T23:07:12.622Z,17.00
2023-05-28T23:09:40.844Z,14.70
2023-05-28T23:12:08.892Z,14.60
2023-05-28T23:14:37.370Z,14.80
2023-05-28T23:17:05.164Z,14.30
2023-05-28T23:19:35.574Z,14.20
2023-05-28T23:22:03.335Z,12.70
2023-05-28T23:24:31.681Z,13.50
2023-05-28T23:26:59.521Z,12.80
2023-05-28T23:29:27.206Z,13.10
2023-05-28T23:31:54.853Z,12.30
2023-05-28T23:34:22.512Z,11.40
2023-05-28T23:36:50.329Z,12.30
2023-05-28T23:39:18.122Z,12.10
2023-05-28T23:41:45.889Z,12.40
2023-05-28T23:44:13.589Z,11.00
2023-05-28T23:46:41.452Z,18.30
2023-05-28T23:49:09.909Z,15.20
2023-05-28T23:51:37.925Z,23.70
2023-05-28T23:54:05.797Z,24.90
2023-05-28T23:56:33.518Z,31.20
2023-05-28T23:59:01.363Z,29.10
